sensor_id;sensor_type;location;lat;lon;timestamp;pressure;altitude;pressure_sealevel;temperature
12430;BMP280;6279;42.192;24.326;2022-10-31T00:00:19;99321.06;;;17.74
12430;BMP280;6279;42.192;24.326;2022-10-31T00:02:45;99316.78;;;17.79
12430;BMP280;6279;42.192;24.326;2022-10-31T00:05:10;99321.84;;;17.80
12430;BMP280;6279;42.192;24.326;2022-10-31T00:07:36;99309.09;;;17.84
12430;BMP280;6279;42.192;24.326;2022-10-31T00:10:04;99305.84;;;17.88
12430;BMP280;6279;42.192;24.326;2022-10-31T00:12:30;99309.31;;;17.95
12430;BMP280;6279;42.192;24.326;2022-10-31T00:14:55;99299.34;;;18.03
12430;BMP280;6279;42.192;24.326;2022-10-31T00:17:21;99304.41;;;18.11
12430;BMP280;6279;42.192;24.326;2022-10-31T00:19:46;99304.41;;;18.05
12430;BMP280;6279;42.192;24.326;2022-10-31T00:22:12;99302.78;;;18.10
12430;BMP280;6279;42.192;24.326;2022-10-31T00:24:37;99310.28;;;18.07
12430;BMP280;6279;42.192;24.326;2022-10-31T00:27:02;99308.88;;;18.11
12430;BMP280;6279;42.192;24.326;2022-10-31T00:29:28;99313.75;;;18.07
12430;BMP280;6279;42.192;24.326;2022-10-31T00:31:53;99304.16;;;18.19
12430;BMP280;6279;42.192;24.326;2022-10-31T00:34:19;99309.66;;;18.24
12430;BMP280;6279;42.192;24.326;2022-10-31T00:36:44;99310.88;;;18.15
12430;BMP280;6279;42.192;24.326;2022-10-31T00:39:09;99308.84;;;18.17
12430;BMP280;6279;42.192;24.326;2022-10-31T00:41:35;99300.16;;;18.10
12430;BMP280;6279;42.192;24.326;2022-10-31T00:44:00;99311.91;;;18.08
12430;BMP280;6279;42.192;24.326;2022-10-31T00:46:25;99305.22;;;18.12
12430;BMP280;6279;42.192;24.326;2022-10-31T00:48:51;99305.59;;;18.15
12430;BMP280;6279;42.192;24.326;2022-10-31T00:51:17;99309.50;;;18.00
12430;BMP280;6279;42.192;24.326;2022-10-31T00:53:42;99298.75;;;18.01
12430;BMP280;6279;42.192;24.326;2022-10-31T00:56:07;99308.88;;;18.04
12430;BMP280;6279;42.192;24.326;2022-10-31T00:58:33;99309.91;;;17.97
12430;BMP280;6279;42.192;24.326;2022-10-31T01:00:58;99308.91;;;17.92
12430;BMP280;6279;42.192;24.326;2022-10-31T01:03:26;99303.22;;;18.01
12430;BMP280;6279;42.192;24.326;2022-10-31T01:08:28;99301.97;;;18.03
12430;BMP280;6279;42.192;24.326;2022-10-31T01:11:17;99306.84;;;18.00
12430;BMP280;6279;42.192;24.326;2022-10-31T01:13:43;99305.88;;;17.95
12430;BMP280;6279;42.192;24.326;2022-10-31T01:16:11;99310.47;;;18.05
12430;BMP280;6279;42.192;24.326;2022-10-31T01:18:37;99311.31;;;18.00
12430;BMP280;6279;42.192;24.326;2022-10-31T01:23:30;99310.50;;;17.99
12430;BMP280;6279;42.192;24.326;2022-10-31T01:26:18;99302.78;;;18.04
12430;BMP280;6279;42.192;24.326;2022-10-31T01:29:05;99300.38;;;17.90
12430;BMP280;6279;42.192;24.326;2022-10-31T01:31:33;99311.72;;;17.90
12430;BMP280;6279;42.192;24.326;2022-10-31T01:33:59;99303.59;;;17.85
12430;BMP280;6279;42.192;24.326;2022-10-31T01:36:29;99311.75;;;17.71
12430;BMP280;6279;42.192;24.326;2022-10-31T01:38:57;99314.97;;;17.67
12430;BMP280;6279;42.192;24.326;2022-10-31T01:41:26;99308.50;;;17.69
12430;BMP280;6279;42.192;24.326;2022-10-31T01:43:54;99309.13;;;17.58
12430;BMP280;6279;42.192;24.326;2022-10-31T01:46:41;99312.56;;;17.59
12430;BMP280;6279;42.192;24.326;2022-10-31T01:49:16;99313.97;;;17.61
12430;BMP280;6279;42.192;24.326;2022-10-31T01:51:48;99316.59;;;17.68
12430;BMP280;6279;42.192;24.326;2022-10-31T01:54:18;99312.16;;;17.75
12430;BMP280;6279;42.192;24.326;2022-10-31T01:56:48;99305.63;;;17.83
12430;BMP280;6279;42.192;24.326;2022-10-31T01:59:17;99298.94;;;17.87
12430;BMP280;6279;42.192;24.326;2022-10-31T02:01:45;99306.03;;;17.87
12430;BMP280;6279;42.192;24.326;2022-10-31T02:04:11;99298.78;;;17.95
12430;BMP280;6279;42.192;24.326;2022-10-31T02:06:45;99302.44;;;17.94
12430;BMP280;6279;42.192;24.326;2022-10-31T02:09:12;99292.47;;;18.02
12430;BMP280;6279;42.192;24.326;2022-10-31T02:11:37;99285.00;;;18.06
12430;BMP280;6279;42.192;24.326;2022-10-31T02:14:03;99292.09;;;17.99
12430;BMP280;6279;42.192;24.326;2022-10-31T02:16:28;99295.91;;;18.09
12430;BMP280;6279;42.192;24.326;2022-10-31T02:18:54;99291.84;;;18.13
12430;BMP280;6279;42.192;24.326;2022-10-31T02:21:37;99288.44;;;18.06
12430;BMP280;6279;42.192;24.326;2022-10-31T02:27:13;99287.00;;;18.10
12430;BMP280;6279;42.192;24.326;2022-10-31T02:29:55;99294.69;;;18.05
12430;BMP280;6279;42.192;24.326;2022-10-31T02:41:30;99295.53;;;18.00
12430;BMP280;6279;42.192;24.326;2022-10-31T02:46:34;99301.97;;;18.10
12430;BMP280;6279;42.192;24.326;2022-10-31T02:49:07;99307.03;;;18.11
12430;BMP280;6279;42.192;24.326;2022-10-31T02:51:35;99306.38;;;18.22
12430;BMP280;6279;42.192;24.326;2022-10-31T02:54:00;99308.41;;;18.20
12430;BMP280;6279;42.192;24.326;2022-10-31T02:56:26;99318.13;;;18.20
12430;BMP280;6279;42.192;24.326;2022-10-31T02:59:00;99315.50;;;18.20
12430;BMP280;6279;42.192;24.326;2022-10-31T03:01:42;99323.00;;;18.16
12430;BMP280;6279;42.192;24.326;2022-10-31T03:06:48;99323.47;;;18.07
12430;BMP280;6279;42.192;24.326;2022-10-31T03:09:27;99317.78;;;18.03
12430;BMP280;6279;42.192;24.326;2022-10-31T03:12:46;99325.47;;;18.05
12430;BMP280;6279;42.192;24.326;2022-10-31T03:18:26;99323.47;;;18.00
12430;BMP280;6279;42.192;24.326;2022-10-31T03:21:03;99317.38;;;18.00
12430;BMP280;6279;42.192;24.326;2022-10-31T03:23:30;99329.72;;;18.00
12430;BMP280;6279;42.192;24.326;2022-10-31T03:26:00;99325.06;;;18.01
12430;BMP280;6279;42.192;24.326;2022-10-31T03:28:33;99327.69;;;18.01
12430;BMP280;6279;42.192;24.326;2022-10-31T03:30:59;99334.19;;;17.99
12430;BMP280;6279;42.192;24.326;2022-10-31T03:33:29;99336.41;;;18.08
12430;BMP280;6279;42.192;24.326;2022-10-31T03:35:57;99337.22;;;18.02
12430;BMP280;6279;42.192;24.326;2022-10-31T03:38:23;99337.63;;;18.06
12430;BMP280;6279;42.192;24.326;2022-10-31T03:40:51;99343.28;;;18.03
12430;BMP280;6279;42.192;24.326;2022-10-31T03:43:22;99346.97;;;17.96
12430;BMP280;6279;42.192;24.326;2022-10-31T03:45:50;99343.72;;;17.94
12430;BMP280;6279;42.192;24.326;2022-10-31T03:48:18;99337.22;;;17.96
12430;BMP280;6279;42.192;24.326;2022-10-31T03:51:15;99338.66;;;17.92
12430;BMP280;6279;42.192;24.326;2022-10-31T03:53:55;99344.09;;;17.91
12430;BMP280;6279;42.192;24.326;2022-10-31T03:56:36;99335.41;;;17.97
12430;BMP280;6279;42.192;24.326;2022-10-31T03:59:09;99334.41;;;17.91
12430;BMP280;6279;42.192;24.326;2022-10-31T04:01:39;99347.94;;;17.82
12430;BMP280;6279;42.192;24.326;2022-10-31T04:04:06;99344.28;;;17.83
12430;BMP280;6279;42.192;24.326;2022-10-31T04:06:34;99336.84;;;17.74
12430;BMP280;6279;42.192;24.326;2022-10-31T04:09:03;99346.13;;;17.70
12430;BMP280;6279;42.192;24.326;2022-10-31T04:11:33;99339.25;;;17.69
12430;BMP280;6279;42.192;24.326;2022-10-31T04:14:01;99350.59;;;17.63
12430;BMP280;6279;42.192;24.326;2022-10-31T04:16:28;99348.16;;;17.49
12430;BMP280;6279;42.192;24.326;2022-10-31T04:18:53;99347.13;;;17.50
12430;BMP280;6279;42.192;24.326;2022-10-31T04:21:19;99352.41;;;17.37
12430;BMP280;6279;42.192;24.326;2022-10-31T04:23:44;99357.88;;;17.35
12430;BMP280;6279;42.192;24.326;2022-10-31T04:26:11;99360.47;;;17.29
12430;BMP280;6279;42.192;24.326;2022-10-31T04:28:37;99362.72;;;17.19
12430;BMP280;6279;42.192;24.326;2022-10-31T04:31:02;99373.41;;;17.18
12430;BMP280;6279;42.192;24.326;2022-10-31T04:33:27;99380.28;;;17.19
12430;BMP280;6279;42.192;24.326;2022-10-31T04:35:53;99370.34;;;17.02
12430;BMP280;6279;42.192;24.326;2022-10-31T04:38:18;99381.00;;;16.94
12430;BMP280;6279;42.192;24.326;2022-10-31T04:40:45;99393.72;;;16.90
12430;BMP280;6279;42.192;24.326;2022-10-31T04:43:10;99380.38;;;16.92
12430;BMP280;6279;42.192;24.326;2022-10-31T04:45:36;99395.75;;;16.95
12430;BMP280;6279;42.192;24.326;2022-10-31T04:48:02;99390.88;;;16.86
12430;BMP280;6279;42.192;24.326;2022-10-31T04:50:28;99392.91;;;16.90
12430;BMP280;6279;42.192;24.326;2022-10-31T04:52:53;99382.81;;;16.93
12430;BMP280;6279;42.192;24.326;2022-10-31T04:55:18;99396.53;;;16.89
12430;BMP280;6279;42.192;24.326;2022-10-31T04:57:46;99402.59;;;16.83
12430;BMP280;6279;42.192;24.326;2022-10-31T05:00:17;99404.59;;;16.81
12430;BMP280;6279;42.192;24.326;2022-10-31T05:02:47;99409.47;;;16.84
12430;BMP280;6279;42.192;24.326;2022-10-31T05:05:15;99415.28;;;16.80
12430;BMP280;6279;42.192;24.326;2022-10-31T05:07:41;99415.06;;;16.75
12430;BMP280;6279;42.192;24.326;2022-10-31T05:10:12;99414.31;;;16.87
12430;BMP280;6279;42.192;24.326;2022-10-31T05:12:38;99418.75;;;16.87
12430;BMP280;6279;42.192;24.326;2022-10-31T05:15:10;99416.75;;;16.95
12430;BMP280;6279;42.192;24.326;2022-10-31T05:17:35;99425.13;;;17.11
12430;BMP280;6279;42.192;24.326;2022-10-31T05:20:00;99420.34;;;17.21
12430;BMP280;6279;42.192;24.326;2022-10-31T05:22:26;99420.94;;;17.29
12430;BMP280;6279;42.192;24.326;2022-10-31T05:24:51;99424.63;;;17.41
12430;BMP280;6279;42.192;24.326;2022-10-31T05:27:17;99435.16;;;17.54
12430;BMP280;6279;42.192;24.326;2022-10-31T05:29:42;99430.31;;;17.63
12430;BMP280;6279;42.192;24.326;2022-10-31T05:32:07;99435.00;;;17.74
12430;BMP280;6279;42.192;24.326;2022-10-31T05:34:33;99435.63;;;18.01
12430;BMP280;6279;42.192;24.326;2022-10-31T05:36:58;99429.53;;;18.20
12430;BMP280;6279;42.192;24.326;2022-10-31T05:39:23;99440.28;;;18.25
12430;BMP280;6279;42.192;24.326;2022-10-31T05:41:49;99443.88;;;18.43
12430;BMP280;6279;42.192;24.326;2022-10-31T05:44:14;99443.69;;;18.44
12430;BMP280;6279;42.192;24.326;2022-10-31T05:46:39;99443.88;;;18.43
12430;BMP280;6279;42.192;24.326;2022-10-31T05:49:05;99446.91;;;18.46
12430;BMP280;6279;42.192;24.326;2022-10-31T05:51:30;99451.59;;;18.44
12430;BMP280;6279;42.192;24.326;2022-10-31T05:53:55;99461.53;;;18.43
12430;BMP280;6279;42.192;24.326;2022-10-31T05:56:21;99462.50;;;18.54
12430;BMP280;6279;42.192;24.326;2022-10-31T05:58:46;99464.31;;;18.60
12430;BMP280;6279;42.192;24.326;2022-10-31T06:01:12;99469.59;;;18.54
12430;BMP280;6279;42.192;24.326;2022-10-31T06:03:37;99469.19;;;18.63
12430;BMP280;6279;42.192;24.326;2022-10-31T06:06:02;99460.13;;;19.09
12430;BMP280;6279;42.192;24.326;2022-10-31T06:08:28;99462.16;;;19.86
12430;BMP280;6279;42.192;24.326;2022-10-31T06:10:53;99464.19;;;20.91
12430;BMP280;6279;42.192;24.326;2022-10-31T06:13:19;99468.47;;;21.97
12430;BMP280;6279;42.192;24.326;2022-10-31T06:15:44;99466.69;;;22.98
12430;BMP280;6279;42.192;24.326;2022-10-31T06:18:09;99461.44;;;23.80
12430;BMP280;6279;42.192;24.326;2022-10-31T06:20:35;99470.28;;;24.66
12430;BMP280;6279;42.192;24.326;2022-10-31T06:23:00;99469.69;;;25.60
12430;BMP280;6279;42.192;24.326;2022-10-31T06:25:26;99473.50;;;26.20
12430;BMP280;6279;42.192;24.326;2022-10-31T06:27:52;99476.50;;;26.29
12430;BMP280;6279;42.192;24.326;2022-10-31T06:30:17;99477.94;;;26.82
12430;BMP280;6279;42.192;24.326;2022-10-31T06:32:43;99480.56;;;27.97
12430;BMP280;6279;42.192;24.326;2022-10-31T06:35:09;99483.22;;;28.95
12430;BMP280;6279;42.192;24.326;2022-10-31T06:37:34;99487.47;;;29.73
12430;BMP280;6279;42.192;24.326;2022-10-31T06:40:00;99493.19;;;30.37
12430;BMP280;6279;42.192;24.326;2022-10-31T06:42:25;99498.28;;;30.99
12430;BMP280;6279;42.192;24.326;2022-10-31T06:44:51;99493.84;;;31.76
12430;BMP280;6279;42.192;24.326;2022-10-31T06:47:16;99484.34;;;32.33
12430;BMP280;6279;42.192;24.326;2022-10-31T06:49:41;99497.22;;;32.99
12430;BMP280;6279;42.192;24.326;2022-10-31T06:52:09;99494.34;;;31.96
12430;BMP280;6279;42.192;24.326;2022-10-31T06:54:35;99490.25;;;32.35
12430;BMP280;6279;42.192;24.326;2022-10-31T06:57:00;99488.88;;;33.13
12430;BMP280;6279;42.192;24.326;2022-10-31T06:59:26;99490.25;;;33.98
12430;BMP280;6279;42.192;24.326;2022-10-31T07:01:51;99486.44;;;34.85
12430;BMP280;6279;42.192;24.326;2022-10-31T07:04:16;99489.00;;;35.75
12430;BMP280;6279;42.192;24.326;2022-10-31T07:06:42;99482.84;;;36.41
12430;BMP280;6279;42.192;24.326;2022-10-31T07:09:07;99486.44;;;36.86
12430;BMP280;6279;42.192;24.326;2022-10-31T07:11:32;99479.31;;;37.75
12430;BMP280;6279;42.192;24.326;2022-10-31T07:13:58;99476.28;;;38.17
12430;BMP280;6279;42.192;24.326;2022-10-31T07:16:23;99475.03;;;38.66
12430;BMP280;6279;42.192;24.326;2022-10-31T07:18:49;99476.28;;;39.36
12430;BMP280;6279;42.192;24.326;2022-10-31T07:21:15;99470.94;;;39.28
12430;BMP280;6279;42.192;24.326;2022-10-31T07:23:40;99468.31;;;40.17
12430;BMP280;6279;42.192;24.326;2022-10-31T07:26:06;99464.91;;;40.88
12430;BMP280;6279;42.192;24.326;2022-10-31T07:28:31;99461.25;;;40.69
12430;BMP280;6279;42.192;24.326;2022-10-31T07:30:57;99463.94;;;40.96
12430;BMP280;6279;42.192;24.326;2022-10-31T07:33:23;99456.13;;;40.53
12430;BMP280;6279;42.192;24.326;2022-10-31T07:35:51;99460.50;;;40.42
12430;BMP280;6279;42.192;24.326;2022-10-31T07:38:16;99453.19;;;41.18
12430;BMP280;6279;42.192;24.326;2022-10-31T07:40:42;99460.22;;;41.50
12430;BMP280;6279;42.192;24.326;2022-10-31T07:43:08;99471.38;;;41.75
12430;BMP280;6279;42.192;24.326;2022-10-31T07:45:35;99459.13;;;42.40
12430;BMP280;6279;42.192;24.326;2022-10-31T07:48:00;99457.38;;;42.32
12430;BMP280;6279;42.192;24.326;2022-10-31T07:50:29;99455.44;;;43.39
12430;BMP280;6279;42.192;24.326;2022-10-31T07:53:05;99458.38;;;43.78
12430;BMP280;6279;42.192;24.326;2022-10-31T07:55:32;99456.94;;;44.17
12430;BMP280;6279;42.192;24.326;2022-10-31T08:00:23;99447.16;;;44.87
12430;BMP280;6279;42.192;24.326;2022-10-31T08:02:48;99443.25;;;44.88
12430;BMP280;6279;42.192;24.326;2022-10-31T08:05:13;99445.84;;;44.35
12430;BMP280;6279;42.192;24.326;2022-10-31T08:07:39;99453.78;;;42.88
12430;BMP280;6279;42.192;24.326;2022-10-31T08:10:07;99450.78;;;41.81
12430;BMP280;6279;42.192;24.326;2022-10-31T08:12:32;99452.72;;;41.47
12430;BMP280;6279;42.192;24.326;2022-10-31T08:14:58;99445.28;;;40.02
12430;BMP280;6279;42.192;24.326;2022-10-31T08:17:23;99450.19;;;38.36
12430;BMP280;6279;42.192;24.326;2022-10-31T08:19:49;99443.34;;;37.98
12430;BMP280;6279;42.192;24.326;2022-10-31T08:22:14;99450.31;;;39.38
12430;BMP280;6279;42.192;24.326;2022-10-31T08:24:39;99434.81;;;41.31
12430;BMP280;6279;42.192;24.326;2022-10-31T08:27:05;99428.78;;;42.48
12430;BMP280;6279;42.192;24.326;2022-10-31T08:29:30;99424.13;;;40.65
12430;BMP280;6279;42.192;24.326;2022-10-31T08:31:57;99426.59;;;41.00
12430;BMP280;6279;42.192;24.326;2022-10-31T08:34:23;99431.03;;;41.87
12430;BMP280;6279;42.192;24.326;2022-10-31T08:36:49;99420.66;;;43.18
12430;BMP280;6279;42.192;24.326;2022-10-31T08:39:14;99421.44;;;44.27
12430;BMP280;6279;42.192;24.326;2022-10-31T08:41:39;99430.09;;;44.65
12430;BMP280;6279;42.192;24.326;2022-10-31T08:44:05;99432.03;;;45.53
12430;BMP280;6279;42.192;24.326;2022-10-31T08:46:30;99426.97;;;46.48
12430;BMP280;6279;42.192;24.326;2022-10-31T08:48:56;99432.91;;;46.61
12430;BMP280;6279;42.192;24.326;2022-10-31T08:51:22;99428.16;;;45.64
12430;BMP280;6279;42.192;24.326;2022-10-31T08:53:47;99430.63;;;44.80
12430;BMP280;6279;42.192;24.326;2022-10-31T08:56:12;99429.00;;;44.04
12430;BMP280;6279;42.192;24.326;2022-10-31T08:58:38;99429.19;;;44.22
12430;BMP280;6279;42.192;24.326;2022-10-31T09:01:03;99428.84;;;43.94
12430;BMP280;6279;42.192;24.326;2022-10-31T09:03:30;99428.47;;;43.96
12430;BMP280;6279;42.192;24.326;2022-10-31T09:05:58;99435.63;;;43.24
12430;BMP280;6279;42.192;24.326;2022-10-31T09:08:24;99425.53;;;43.06
12430;BMP280;6279;42.192;24.326;2022-10-31T09:10:50;99433.38;;;43.07
12430;BMP280;6279;42.192;24.326;2022-10-31T09:13:18;99426.38;;;43.32
12430;BMP280;6279;42.192;24.326;2022-10-31T09:15:45;99430.41;;;43.41
12430;BMP280;6279;42.192;24.326;2022-10-31T09:18:12;99428.94;;;43.21
12430;BMP280;6279;42.192;24.326;2022-10-31T09:20:39;99423.97;;;42.83
12430;BMP280;6279;42.192;24.326;2022-10-31T09:23:18;99419.13;;;42.54
12430;BMP280;6279;42.192;24.326;2022-10-31T09:25:45;99418.91;;;43.29
12430;BMP280;6279;42.192;24.326;2022-10-31T09:28:12;99415.44;;;44.18
12430;BMP280;6279;42.192;24.326;2022-10-31T09:30:38;99424.47;;;43.61
12430;BMP280;6279;42.192;24.326;2022-10-31T09:33:06;99417.78;;;43.58
12430;BMP280;6279;42.192;24.326;2022-10-31T09:35:32;99415.53;;;43.93
12430;BMP280;6279;42.192;24.326;2022-10-31T09:38:00;99418.00;;;43.47
12430;BMP280;6279;42.192;24.326;2022-10-31T09:40:40;99413.13;;;43.88
12430;BMP280;6279;42.192;24.326;2022-10-31T09:43:25;99409.78;;;43.76
12430;BMP280;6279;42.192;24.326;2022-10-31T09:51:41;99411.16;;;43.12
12430;BMP280;6279;42.192;24.326;2022-10-31T09:54:13;99404.53;;;42.69
12430;BMP280;6279;42.192;24.326;2022-10-31T09:56:39;99408.47;;;40.77
12430;BMP280;6279;42.192;24.326;2022-10-31T09:59:11;99412.06;;;40.39
12430;BMP280;6279;42.192;24.326;2022-10-31T10:18:32;99396.81;;;41.10
12430;BMP280;6279;42.192;24.326;2022-10-31T10:26:43;99386.53;;;40.17
12430;BMP280;6279;42.192;24.326;2022-10-31T10:29:49;99388.84;;;40.03
12430;BMP280;6279;42.192;24.326;2022-10-31T10:32:49;99389.28;;;40.05
12430;BMP280;6279;42.192;24.326;2022-10-31T10:35:38;99389.91;;;39.72
12430;BMP280;6279;42.192;24.326;2022-10-31T10:38:48;99400.88;;;37.94
12430;BMP280;6279;42.192;24.326;2022-10-31T10:41:21;99395.84;;;35.76
12430;BMP280;6279;42.192;24.326;2022-10-31T10:43:49;99403.84;;;33.77
12430;BMP280;6279;42.192;24.326;2022-10-31T10:52:02;99394.97;;;31.09
12430;BMP280;6279;42.192;24.326;2022-10-31T11:02:49;99394.50;;;29.96
12430;BMP280;6279;42.192;24.326;2022-10-31T11:05:40;99391.66;;;29.83
12430;BMP280;6279;42.192;24.326;2022-10-31T11:08:07;99390.03;;;29.82
12430;BMP280;6279;42.192;24.326;2022-10-31T11:10:33;99392.50;;;29.78
12430;BMP280;6279;42.192;24.326;2022-10-31T11:15:36;99383.13;;;29.76
12430;BMP280;6279;42.192;24.326;2022-10-31T11:18:03;99378.25;;;29.83
12430;BMP280;6279;42.192;24.326;2022-10-31T11:20:34;99375.44;;;29.65
12430;BMP280;6279;42.192;24.326;2022-10-31T11:23:20;99371.78;;;29.84
12430;BMP280;6279;42.192;24.326;2022-10-31T11:26:19;99373.59;;;29.98
12430;BMP280;6279;42.192;24.326;2022-10-31T11:28:56;99364.53;;;29.89
12430;BMP280;6279;42.192;24.326;2022-10-31T11:31:21;99359.72;;;29.86
12430;BMP280;6279;42.192;24.326;2022-10-31T11:33:49;99364.88;;;30.11
12430;BMP280;6279;42.192;24.326;2022-10-31T11:36:24;99360.47;;;29.92
12430;BMP280;6279;42.192;24.326;2022-10-31T11:38:51;99362.66;;;30.45
12430;BMP280;6279;42.192;24.326;2022-10-31T11:41:23;99362.88;;;30.77
12430;BMP280;6279;42.192;24.326;2022-10-31T11:43:58;99361.50;;;29.95
12430;BMP280;6279;42.192;24.326;2022-10-31T11:48:59;99355.41;;;29.85
12430;BMP280;6279;42.192;24.326;2022-10-31T11:51:27;99359.59;;;30.06
12430;BMP280;6279;42.192;24.326;2022-10-31T11:53:56;99353.28;;;29.87
12430;BMP280;6279;42.192;24.326;2022-10-31T11:56:22;99347.88;;;29.59
12430;BMP280;6279;42.192;24.326;2022-10-31T11:59:04;99364.00;;;29.02
12430;BMP280;6279;42.192;24.326;2022-10-31T12:01:32;99361.69;;;28.71
12430;BMP280;6279;42.192;24.326;2022-10-31T12:04:10;99359.38;;;28.31
12430;BMP280;6279;42.192;24.326;2022-10-31T12:06:41;99346.75;;;28.56
12430;BMP280;6279;42.192;24.326;2022-10-31T12:09:21;99346.38;;;28.86
12430;BMP280;6279;42.192;24.326;2022-10-31T12:17:20;99351.63;;;29.11
12430;BMP280;6279;42.192;24.326;2022-10-31T12:20:06;99347.22;;;29.29
12430;BMP280;6279;42.192;24.326;2022-10-31T12:25:18;99345.00;;;29.46
12430;BMP280;6279;42.192;24.326;2022-10-31T12:30:19;99352.44;;;29.11
12430;BMP280;6279;42.192;24.326;2022-10-31T12:44:05;99347.91;;;29.54
12430;BMP280;6279;42.192;24.326;2022-10-31T12:55:00;99353.53;;;28.19
12430;BMP280;6279;42.192;24.326;2022-10-31T12:57:44;99351.13;;;28.03
12430;BMP280;6279;42.192;24.326;2022-10-31T13:00:15;99350.59;;;28.06
12430;BMP280;6279;42.192;24.326;2022-10-31T13:03:09;99355.44;;;28.09
12430;BMP280;6279;42.192;24.326;2022-10-31T13:05:42;99345.78;;;28.13
12430;BMP280;6279;42.192;24.326;2022-10-31T13:08:17;99348.72;;;28.11
12430;BMP280;6279;42.192;24.326;2022-10-31T13:16:19;99346.34;;;27.90
12430;BMP280;6279;42.192;24.326;2022-10-31T13:18:49;99346.88;;;27.87
12430;BMP280;6279;42.192;24.326;2022-10-31T13:21:26;99350.88;;;27.80
12430;BMP280;6279;42.192;24.326;2022-10-31T13:23:52;99339.34;;;27.65
12430;BMP280;6279;42.192;24.326;2022-10-31T13:26:40;99346.31;;;27.61
12430;BMP280;6279;42.192;24.326;2022-10-31T13:29:22;99338.81;;;27.68
12430;BMP280;6279;42.192;24.326;2022-10-31T13:31:49;99342.03;;;27.65
12430;BMP280;6279;42.192;24.326;2022-10-31T13:37:04;99340.13;;;27.51
12430;BMP280;6279;42.192;24.326;2022-10-31T13:42:10;99337.75;;;27.49
12430;BMP280;6279;42.192;24.326;2022-10-31T13:44:37;99338.03;;;27.62
12430;BMP280;6279;42.192;24.326;2022-10-31T13:47:27;99344.16;;;27.63
12430;BMP280;6279;42.192;24.326;2022-10-31T13:52:44;99335.88;;;27.64
12430;BMP280;6279;42.192;24.326;2022-10-31T13:55:40;99331.31;;;27.50
12430;BMP280;6279;42.192;24.326;2022-10-31T14:00:46;99340.31;;;27.15
12430;BMP280;6279;42.192;24.326;2022-10-31T14:03:24;99337.63;;;27.00
12430;BMP280;6279;42.192;24.326;2022-10-31T14:05:54;99338.94;;;26.93
12430;BMP280;6279;42.192;24.326;2022-10-31T14:08:23;99347.19;;;26.86
12430;BMP280;6279;42.192;24.326;2022-10-31T14:10:51;99336.47;;;26.72
12430;BMP280;6279;42.192;24.326;2022-10-31T14:13:25;99339.81;;;26.53
12430;BMP280;6279;42.192;24.326;2022-10-31T14:15:59;99345.84;;;26.34
12430;BMP280;6279;42.192;24.326;2022-10-31T14:18:30;99344.50;;;26.31
12430;BMP280;6279;42.192;24.326;2022-10-31T14:20:56;99351.63;;;26.21
12430;BMP280;6279;42.192;24.326;2022-10-31T14:23:35;99347.53;;;26.09
12430;BMP280;6279;42.192;24.326;2022-10-31T14:28:34;99346.56;;;25.89
12430;BMP280;6279;42.192;24.326;2022-10-31T14:31:00;99346.00;;;25.82
12430;BMP280;6279;42.192;24.326;2022-10-31T14:33:27;99350.44;;;25.72
12430;BMP280;6279;42.192;24.326;2022-10-31T14:36:03;99343.13;;;25.57
12430;BMP280;6279;42.192;24.326;2022-10-31T14:44:10;99338.00;;;25.25
12430;BMP280;6279;42.192;24.326;2022-10-31T14:49:24;99338.72;;;24.95
12430;BMP280;6279;42.192;24.326;2022-10-31T14:51:54;99347.09;;;24.82
12430;BMP280;6279;42.192;24.326;2022-10-31T14:54:30;99345.13;;;24.73
12430;BMP280;6279;42.192;24.326;2022-10-31T14:57:13;99345.41;;;24.55
12430;BMP280;6279;42.192;24.326;2022-10-31T14:59:43;99348.66;;;24.41
12430;BMP280;6279;42.192;24.326;2022-10-31T15:02:22;99343.94;;;24.27
12430;BMP280;6279;42.192;24.326;2022-10-31T15:04:50;99344.78;;;24.11
12430;BMP280;6279;42.192;24.326;2022-10-31T15:07:26;99348.22;;;23.96
12430;BMP280;6279;42.192;24.326;2022-10-31T15:12:26;99352.91;;;23.73
12430;BMP280;6279;42.192;24.326;2022-10-31T15:14:52;99348.88;;;23.54
12430;BMP280;6279;42.192;24.326;2022-10-31T15:17:18;99360.28;;;23.38
12430;BMP280;6279;42.192;24.326;2022-10-31T15:19:44;99358.94;;;23.25
12430;BMP280;6279;42.192;24.326;2022-10-31T15:22:18;99357.63;;;23.11
12430;BMP280;6279;42.192;24.326;2022-10-31T15:24:44;99351.00;;;22.97
12430;BMP280;6279;42.192;24.326;2022-10-31T15:27:15;99349.16;;;22.86
12430;BMP280;6279;42.192;24.326;2022-10-31T15:29:52;99360.16;;;22.79
12430;BMP280;6279;42.192;24.326;2022-10-31T15:32:23;99347.97;;;22.66
12430;BMP280;6279;42.192;24.326;2022-10-31T15:34:50;99354.66;;;22.46
12430;BMP280;6279;42.192;24.326;2022-10-31T15:37:29;99359.63;;;22.32
12430;BMP280;6279;42.192;24.326;2022-10-31T15:39:54;99370.84;;;22.22
12430;BMP280;6279;42.192;24.326;2022-10-31T15:42:24;99369.78;;;22.12
12430;BMP280;6279;42.192;24.326;2022-10-31T15:47:45;99384.75;;;21.96
12430;BMP280;6279;42.192;24.326;2022-10-31T15:50:32;99383.25;;;21.88
12430;BMP280;6279;42.192;24.326;2022-10-31T15:52:58;99390.69;;;21.80
12430;BMP280;6279;42.192;24.326;2022-10-31T15:55:26;99393.22;;;21.75
12430;BMP280;6279;42.192;24.326;2022-10-31T15:58:10;99397.84;;;21.68
12430;BMP280;6279;42.192;24.326;2022-10-31T16:00:37;99396.44;;;21.66
12430;BMP280;6279;42.192;24.326;2022-10-31T16:10:51;99414.31;;;21.41
12430;BMP280;6279;42.192;24.326;2022-10-31T16:13:17;99415.00;;;21.37
12430;BMP280;6279;42.192;24.326;2022-10-31T16:15:52;99421.31;;;21.36
12430;BMP280;6279;42.192;24.326;2022-10-31T16:18:18;99419.44;;;21.54
12430;BMP280;6279;42.192;24.326;2022-10-31T16:20:53;99427.25;;;21.60
12430;BMP280;6279;42.192;24.326;2022-10-31T16:23:23;99437.47;;;21.86
12430;BMP280;6279;42.192;24.326;2022-10-31T16:25:50;99432.53;;;21.89
12430;BMP280;6279;42.192;24.326;2022-10-31T16:28:18;99431.38;;;21.85
12430;BMP280;6279;42.192;24.326;2022-10-31T16:30:46;99440.09;;;21.75
12430;BMP280;6279;42.192;24.326;2022-10-31T16:35:56;99449.53;;;21.42
12430;BMP280;6279;42.192;24.326;2022-10-31T16:38:22;99462.63;;;21.19
12430;BMP280;6279;42.192;24.326;2022-10-31T16:40:48;99461.25;;;21.34
12430;BMP280;6279;42.192;24.326;2022-10-31T16:43:16;99463.06;;;21.34
12430;BMP280;6279;42.192;24.326;2022-10-31T16:45:50;99465.81;;;21.28
12430;BMP280;6279;42.192;24.326;2022-10-31T16:48:18;99465.50;;;21.18
12430;BMP280;6279;42.192;24.326;2022-10-31T16:50:46;99459.28;;;21.12